Golden Iris — 3FZK4 — position and weather

sailwx.info

Track history (hours):
 
Tides and Currents Weather Stations Pressure Air Temp Water Temp Dewpoint Dewpoint Depression Visibility Wind Speed Wind Dir Waves Ship Positions

Golden Iris

Last reported at 2014-Aug-27 12:34 UTC. Time now 2014-Aug-27 13:15 UTC.
Position N 34°00' E 030°51'.

Length 163 m; draft 6 m.

Type: Passenger vessel. MMSI: 371771000.

Date/timePositionNaut miles runAvg speedWind from/ knotsBaromVisibWave heightAir tempDewpointWater temp
2014-Aug-27 12:34N 34°00' E 030°51'3015.0
2014-Aug-27 10:33N 34°11' E 030°17'23314.6
2014-Aug-26 18:33N 35°52' E 026°00'1514.7
2014-Aug-26 17:32N 36°02' E 025°46'1414.4
2014-Aug-26 16:34N 36°11' E 025°34'1514.5
2014-Aug-26 15:34N 36°21' E 025°20'5 4.7
2014-Aug-26 14:29N 36°25' E 025°25'0 0.0
2014-Aug-26 13:29N 36°25' E 025°25'0 0.0
2014-Aug-26 12:29N 36°25' E 025°25'0 0.0
2014-Aug-26 11:29N 36°25' E 025°25'0 0.0
2014-Aug-26 10:29N 36°25' E 025°25'0 0.0
2014-Aug-26 09:11N 36°25' E 025°25'0 0.1
2014-Aug-26 08:33N 36°25' E 025°25'0 0.4
2014-Aug-26 07:32N 36°24' E 025°25'1 1.4
2014-Aug-26 06:33N 36°23' E 025°25'4 4.0
2014-Aug-26 05:33N 36°21' E 025°21'1413.7
2014-Aug-26 04:33N 36°17' E 025°37'1714.2
2014-Aug-26 03:22N 36°15' E 025°58'1114.1
2014-Aug-26 02:33N 36°14' E 026°12'1414.2
2014-Aug-26 01:33N 36°15' E 026°29'1414.0
2014-Aug-26 00:33N 36°15' E 026°47'1414.0
2014-Aug-25 23:33N 36°17' E 027°04'1514.4
2014-Aug-25 22:32N 36°19' E 027°22'24410.6
2014-Aug-24 23:28N 34°33' E 031°51'1314.3
2014-Aug-24 22:33N 34°26' E 032°05'1414.3
2014-Aug-24 21:33N 34°18' E 032°19'1414.3
2014-Aug-24 20:33N 34°10' E 032°34'1514.8
2014-Aug-24 19:33N 34°02' E 032°49'1515.0
2014-Aug-24 18:33N 33°54' E 033°04'1515.0
2014-Aug-24 17:33N 33°46' E 033°19'1515.1
2014-Aug-24 16:33N 33°37' E 033°34'1515.0
2014-Aug-24 15:33N 33°29' E 033°49'1514.9
2014-Aug-24 14:33N 33°21' E 034°04'1514.7
2014-Aug-24 13:33N 33°13' E 034°19'1414.3
2014-Aug-24 12:33N 33°05' E 034°33'1514.4
2014-Aug-24 11:33N 32°57' E 034°48'1313.2
2014-Aug-24 10:32N 32°50' E 035°01'1 1.3
2014-Aug-24 09:31N 32°49' E 035°00'0 0.0
2014-Aug-24 06:28N 32°49' E 035°00'0 0.0
2014-Aug-24 05:25N 32°49' E 035°00'0 0.0
2014-Aug-24 04:31N 32°49' E 035°00'4 3.8
2014-Aug-24 03:23N 32°52' E 034°57'910.7
2014-Aug-24 02:30N 32°54' E 034°45'2511.9
2014-Aug-24 00:22N 32°59' E 034°16'2411.7
2014-Aug-23 22:19N 33°08' E 033°49'912.1
2014-Aug-23 21:33N 33°13' E 033°40'1212.0
2014-Aug-23 20:33N 33°20' E 033°29'1212.2
2014-Aug-23 19:33N 33°27' E 033°17'35910.2
2014-Aug-22 08:20N 36°54' E 027°17'1 1.2
2014-Aug-22 07:33N 36°54' E 027°18'6 5.7
2014-Aug-22 06:27N 36°55' E 027°11'8 9.1
2014-Aug-22 05:33N 36°53' E 027°01'1010.2
2014-Aug-22 04:32N 36°55' E 026°48'1111.7
2014-Aug-22 03:33N 37°00' E 026°35'1211.8
2014-Aug-22 02:34N 37°05' E 026°22'1212.1
2014-Aug-22 01:33N 37°07' E 026°07'1212.4
2014-Aug-22 00:33N 37°10' E 025°52'1313.0
2014-Aug-21 23:33N 37°13' E 025°36'1313.1
2014-Aug-21 22:33N 37°15' E 025°20'1312.9
2014-Aug-21 21:33N 37°18' E 025°04'1313.0
2014-Aug-21 20:33N 37°21' E 024°48'1313.4
2014-Aug-21 19:33N 37°27' E 024°33'1312.3
2014-Aug-21 18:29N 37°29' E 024°17'1212.7
2014-Aug-21 17:33N 37°34' E 024°03'1313.2
2014-Aug-21 16:33N 37°38' E 023°47'1212.2
2014-Aug-21 15:33N 37°48' E 023°38'9 8.6
2014-Aug-21 14:32N 37°56' E 023°38'0 0.0
2014-Aug-21 13:32N 37°56' E 023°38'0 0.0
2014-Aug-21 12:32N 37°56' E 023°38'0 0.0
2014-Aug-21 11:32N 37°56' E 023°38'0 0.0
2014-Aug-21 10:32N 37°56' E 023°38'0 0.0
2014-Aug-21 09:32N 37°56' E 023°38'0 0.0
2014-Aug-21 08:32N 37°56' E 023°38'0 0.0
2014-Aug-21 07:32N 37°56' E 023°38'0 0.0
2014-Aug-21 06:32N 37°56' E 023°38'0 0.0
2014-Aug-21 05:32N 37°56' E 023°38'1 1.5
2014-Aug-21 04:33N 37°55' E 023°37'1212.1
2014-Aug-21 03:33N 37°44' E 023°43'1010.4
2014-Aug-21 02:33N 37°38' E 023°53'2510.6
2014-Aug-21 00:11N 37°31' E 024°24'711.4
2014-Aug-20 23:34N 37°32' E 024°33'1211.8
2014-Aug-20 22:33N 37°32' E 024°47'1211.5
2014-Aug-20 21:33N 37°29' E 025°01'1212.3
2014-Aug-20 20:34N 37°21' E 025°13'1212.4
2014-Aug-20 19:34N 37°19' E 025°28'1312.4
2014-Aug-20 18:33N 37°18' E 025°44'1212.0
2014-Aug-20 17:34N 37°17' E 025°59'1312.5
2014-Aug-20 16:34N 37°16' E 026°14'1111.3
2014-Aug-20 15:34N 37°15' E 026°28'6 5.7
2014-Aug-20 14:33N 37°19' E 026°34'0 0.0
2014-Aug-20 13:33N 37°19' E 026°34'0 0.0
2014-Aug-20 12:33N 37°19' E 026°34'0 0.1
2014-Aug-20 11:33N 37°19' E 026°34'0 0.0
2014-Aug-20 10:33N 37°19' E 026°34'0 0.0
2014-Aug-20 09:33N 37°19' E 026°34'1 0.4
2014-Aug-20 06:15N 37°18' E 026°35'5 6.6
2014-Aug-20 05:33N 37°14' E 026°36'9 8.9
2014-Aug-20 04:33N 37°05' E 026°37'12 9.5
2014-Aug-20 03:14N 36°53' E 026°39'6 9.3
2014-Aug-20 02:33N 36°46' E 026°40'9 8.9
2014-Aug-20 01:33N 36°40' E 026°48'10 9.5
2014-Aug-20 00:32N 36°35' E 026°58'288 8.7
2014-Aug-18 15:12N 34°36' E 032°21'1911.7
2014-Aug-18 13:34N 34°32' E 032°44'1211.6
2014-Aug-18 12:33N 34°31' E 032°58'9 8.9
2014-Aug-18 11:34N 34°39' E 033°03'2 1.6
2014-Aug-18 10:32N 34°39' E 033°01'0 0.0
2014-Aug-18 09:32N 34°39' E 033°01'0 0.0
2014-Aug-18 08:32N 34°39' E 033°01'0 0.0
2014-Aug-18 07:32N 34°39' E 033°01'0 0.0
2014-Aug-18 06:31N 34°39' E 033°01'0 0.0
2014-Aug-18 05:31N 34°39' E 033°01'0 0.0
2014-Aug-18 04:33N 34°39' E 033°01'4 3.7
2014-Aug-18 03:33N 34°37' E 033°05'8 7.7
2014-Aug-18 02:33N 34°31' E 033°11'8 8.4
2014-Aug-18 01:33N 34°25' E 033°17'64 9.1
2014-Aug-17 18:31N 33°35' E 034°05'10 9.2
2014-Aug-17 17:25N 33°27' E 034°13'10 9.3
2014-Aug-17 16:21N 33°19' E 034°20'7 9.2
2014-Aug-17 15:33N 33°13' E 034°26'  
Track history (hours):
 
Tides and Currents Weather Stations Pressure Air Temp Water Temp Dewpoint Dewpoint Depression Visibility Wind Speed Wind Dir Waves Ship Positions

Golden Iris

Last reported at 2014-Aug-27 12:34 UTC. Time now 2014-Aug-27 13:15 UTC.
Position N 34°00' E 030°51'.

Length 163 m; draft 6 m.

Type: Passenger vessel. MMSI: 371771000.

Date/timePositionNaut miles runAvg speedWind from/ knotsBaromVisibWave heightAir tempDewpointWater temp
2014-Aug-27 12:34N 34°00' E 030°51'3015.0
2014-Aug-27 10:33N 34°11' E 030°17'23314.6
2014-Aug-26 18:33N 35°52' E 026°00'1514.7
2014-Aug-26 17:32N 36°02' E 025°46'1414.4
2014-Aug-26 16:34N 36°11' E 025°34'1514.5
2014-Aug-26 15:34N 36°21' E 025°20'5 4.7
2014-Aug-26 14:29N 36°25' E 025°25'0 0.0
2014-Aug-26 13:29N 36°25' E 025°25'0 0.0
2014-Aug-26 12:29N 36°25' E 025°25'0 0.0
2014-Aug-26 11:29N 36°25' E 025°25'0 0.0
2014-Aug-26 10:29N 36°25' E 025°25'0 0.0
2014-Aug-26 09:11N 36°25' E 025°25'0 0.1
2014-Aug-26 08:33N 36°25' E 025°25'0 0.4
2014-Aug-26 07:32N 36°24' E 025°25'1 1.4
2014-Aug-26 06:33N 36°23' E 025°25'4 4.0
2014-Aug-26 05:33N 36°21' E 025°21'1413.7
2014-Aug-26 04:33N 36°17' E 025°37'1714.2
2014-Aug-26 03:22N 36°15' E 025°58'1114.1
2014-Aug-26 02:33N 36°14' E 026°12'1414.2
2014-Aug-26 01:33N 36°15' E 026°29'1414.0
2014-Aug-26 00:33N 36°15' E 026°47'1414.0
2014-Aug-25 23:33N 36°17' E 027°04'1514.4
2014-Aug-25 22:32N 36°19' E 027°22'24410.6
2014-Aug-24 23:28N 34°33' E 031°51'1314.3
2014-Aug-24 22:33N 34°26' E 032°05'1414.3
2014-Aug-24 21:33N 34°18' E 032°19'1414.3
2014-Aug-24 20:33N 34°10' E 032°34'1514.8
2014-Aug-24 19:33N 34°02' E 032°49'1515.0
2014-Aug-24 18:33N 33°54' E 033°04'1515.0
2014-Aug-24 17:33N 33°46' E 033°19'1515.1
2014-Aug-24 16:33N 33°37' E 033°34'1515.0
2014-Aug-24 15:33N 33°29' E 033°49'1514.9
2014-Aug-24 14:33N 33°21' E 034°04'1514.7
2014-Aug-24 13:33N 33°13' E 034°19'1414.3
2014-Aug-24 12:33N 33°05' E 034°33'1514.4
2014-Aug-24 11:33N 32°57' E 034°48'1313.2
2014-Aug-24 10:32N 32°50' E 035°01'1 1.3
2014-Aug-24 09:31N 32°49' E 035°00'0 0.0
2014-Aug-24 06:28N 32°49' E 035°00'0 0.0
2014-Aug-24 05:25N 32°49' E 035°00'0 0.0
2014-Aug-24 04:31N 32°49' E 035°00'4 3.8
2014-Aug-24 03:23N 32°52' E 034°57'910.7
2014-Aug-24 02:30N 32°54' E 034°45'2511.9
2014-Aug-24 00:22N 32°59' E 034°16'2411.7
2014-Aug-23 22:19N 33°08' E 033°49'912.1
2014-Aug-23 21:33N 33°13' E 033°40'1212.0
2014-Aug-23 20:33N 33°20' E 033°29'1212.2
2014-Aug-23 19:33N 33°27' E 033°17'35910.2
2014-Aug-22 08:20N 36°54' E 027°17'1 1.2
2014-Aug-22 07:33N 36°54' E 027°18'6 5.7
2014-Aug-22 06:27N 36°55' E 027°11'8 9.1
2014-Aug-22 05:33N 36°53' E 027°01'1010.2
2014-Aug-22 04:32N 36°55' E 026°48'1111.7
2014-Aug-22 03:33N 37°00' E 026°35'1211.8
2014-Aug-22 02:34N 37°05' E 026°22'1212.1
2014-Aug-22 01:33N 37°07' E 026°07'1212.4
2014-Aug-22 00:33N 37°10' E 025°52'1313.0
2014-Aug-21 23:33N 37°13' E 025°36'1313.1
2014-Aug-21 22:33N 37°15' E 025°20'1312.9
2014-Aug-21 21:33N 37°18' E 025°04'1313.0
2014-Aug-21 20:33N 37°21' E 024°48'1313.4
2014-Aug-21 19:33N 37°27' E 024°33'1312.3
2014-Aug-21 18:29N 37°29' E 024°17'1212.7
2014-Aug-21 17:33N 37°34' E 024°03'1313.2
2014-Aug-21 16:33N 37°38' E 023°47'1212.2
2014-Aug-21 15:33N 37°48' E 023°38'9 8.6
2014-Aug-21 14:32N 37°56' E 023°38'0 0.0
2014-Aug-21 13:32N 37°56' E 023°38'0 0.0
2014-Aug-21 12:32N 37°56' E 023°38'0 0.0
2014-Aug-21 11:32N 37°56' E 023°38'0 0.0
2014-Aug-21 10:32N 37°56' E 023°38'0 0.0
2014-Aug-21 09:32N 37°56' E 023°38'0 0.0
2014-Aug-21 08:32N 37°56' E 023°38'0 0.0
2014-Aug-21 07:32N 37°56' E 023°38'0 0.0
2014-Aug-21 06:32N 37°56' E 023°38'0 0.0
2014-Aug-21 05:32N 37°56' E 023°38'1 1.5
2014-Aug-21 04:33N 37°55' E 023°37'1212.1
2014-Aug-21 03:33N 37°44' E 023°43'1010.4
2014-Aug-21 02:33N 37°38' E 023°53'2510.6
2014-Aug-21 00:11N 37°31' E 024°24'711.4
2014-Aug-20 23:34N 37°32' E 024°33'1211.8
2014-Aug-20 22:33N 37°32' E 024°47'1211.5
2014-Aug-20 21:33N 37°29' E 025°01'1212.3
2014-Aug-20 20:34N 37°21' E 025°13'1212.4
2014-Aug-20 19:34N 37°19' E 025°28'1312.4
2014-Aug-20 18:33N 37°18' E 025°44'1212.0
2014-Aug-20 17:34N 37°17' E 025°59'1312.5
2014-Aug-20 16:34N 37°16' E 026°14'1111.3
2014-Aug-20 15:34N 37°15' E 026°28'6 5.7
2014-Aug-20 14:33N 37°19' E 026°34'0 0.0
2014-Aug-20 13:33N 37°19' E 026°34'0 0.0
2014-Aug-20 12:33N 37°19' E 026°34'0 0.1
2014-Aug-20 11:33N 37°19' E 026°34'0 0.0
2014-Aug-20 10:33N 37°19' E 026°34'0 0.0
2014-Aug-20 09:33N 37°19' E 026°34'1 0.4
2014-Aug-20 06:15N 37°18' E 026°35'5 6.6
2014-Aug-20 05:33N 37°14' E 026°36'9 8.9
2014-Aug-20 04:33N 37°05' E 026°37'12 9.5
2014-Aug-20 03:14N 36°53' E 026°39'6 9.3
2014-Aug-20 02:33N 36°46' E 026°40'9 8.9
2014-Aug-20 01:33N 36°40' E 026°48'10 9.5
2014-Aug-20 00:32N 36°35' E 026°58'288 8.7
2014-Aug-18 15:12N 34°36' E 032°21'1911.7
2014-Aug-18 13:34N 34°32' E 032°44'1211.6
2014-Aug-18 12:33N 34°31' E 032°58'9 8.9
2014-Aug-18 11:34N 34°39' E 033°03'2 1.6
2014-Aug-18 10:32N 34°39' E 033°01'0 0.0
2014-Aug-18 09:32N 34°39' E 033°01'0 0.0
2014-Aug-18 08:32N 34°39' E 033°01'0 0.0
2014-Aug-18 07:32N 34°39' E 033°01'0 0.0
2014-Aug-18 06:31N 34°39' E 033°01'0 0.0
2014-Aug-18 05:31N 34°39' E 033°01'0 0.0
2014-Aug-18 04:33N 34°39' E 033°01'4 3.7
2014-Aug-18 03:33N 34°37' E 033°05'8 7.7
2014-Aug-18 02:33N 34°31' E 033°11'8 8.4
2014-Aug-18 01:33N 34°25' E 033°17'64 9.1
2014-Aug-17 18:31N 33°35' E 034°05'10 9.2
2014-Aug-17 17:25N 33°27' E 034°13'10 9.3
2014-Aug-17 16:21N 33°19' E 034°20'7 9.2
2014-Aug-17 15:33N 33°13' E 034°26'  

Dump ship's entire track history